sensor_id;sensor_type;location;lat;lon;timestamp;pressure;altitude;pressure_sealevel;temperature;humidity
58967;BME280;44744;51.894;5.080;2022-10-22T00:00:18;100946.53;;;14.72;79.71
58967;BME280;44744;51.894;5.080;2022-10-22T00:01:18;100942.98;;;14.73;79.80
58967;BME280;44744;51.894;5.080;2022-10-22T00:02:19;100944.06;;;14.72;79.75
58967;BME280;44744;51.894;5.080;2022-10-22T00:03:19;100942.11;;;14.72;79.79
58967;BME280;44744;51.894;5.080;2022-10-22T00:04:19;100944.27;;;14.71;79.75
58967;BME280;44744;51.894;5.080;2022-10-22T00:05:23;100945.38;;;14.71;79.80
58967;BME280;44744;51.894;5.080;2022-10-22T00:06:23;100946.63;;;14.71;79.85
58967;BME280;44744;51.894;5.080;2022-10-22T00:07:25;100944.86;;;14.71;79.84
58967;BME280;44744;51.894;5.080;2022-10-22T00:08:25;100945.72;;;14.71;79.86
58967;BME280;44744;51.894;5.080;2022-10-22T00:09:25;100949.34;;;14.70;79.90
58967;BME280;44744;51.894;5.080;2022-10-22T00:10:25;100948.35;;;14.69;79.91
58967;BME280;44744;51.894;5.080;2022-10-22T00:11:26;100945.92;;;14.68;79.99
58967;BME280;44744;51.894;5.080;2022-10-22T00:12:27;100950.58;;;14.67;79.93
58967;BME280;44744;51.894;5.080;2022-10-22T00:13:27;100950.76;;;14.68;79.97
58967;BME280;44744;51.894;5.080;2022-10-22T00:14:27;100954.34;;;14.67;80.07
58967;BME280;44744;51.894;5.080;2022-10-22T00:15:27;100954.20;;;14.67;80.03
58967;BME280;44744;51.894;5.080;2022-10-22T00:16:28;100957.80;;;14.66;80.01
58967;BME280;44744;51.894;5.080;2022-10-22T00:17:28;100956.05;;;14.65;80.10
58967;BME280;44744;51.894;5.080;2022-10-22T00:18:29;100959.67;;;14.65;80.07
58967;BME280;44744;51.894;5.080;2022-10-22T00:19:29;100960.77;;;14.64;79.99
58967;BME280;44744;51.894;5.080;2022-10-22T00:20:30;100961.69;;;14.64;80.13
58967;BME280;44744;51.894;5.080;2022-10-22T00:21:30;100960.52;;;14.63;80.11
58967;BME280;44744;51.894;5.080;2022-10-22T00:22:30;100963.03;;;14.63;80.09
58967;BME280;44744;51.894;5.080;2022-10-22T00:23:33;100959.18;;;14.61;80.14
58967;BME280;44744;51.894;5.080;2022-10-22T00:24:34;100962.22;;;14.61;80.14
58967;BME280;44744;51.894;5.080;2022-10-22T00:25:35;100965.27;;;14.61;80.12
58967;BME280;44744;51.894;5.080;2022-10-22T00:26:37;100967.64;;;14.60;80.18
58967;BME280;44744;51.894;5.080;2022-10-22T00:27:37;100965.58;;;14.59;80.25
58967;BME280;44744;51.894;5.080;2022-10-22T00:28:38;100968.36;;;14.57;80.39
58967;BME280;44744;51.894;5.080;2022-10-22T00:29:38;100967.73;;;14.56;80.37
58967;BME280;44744;51.894;5.080;2022-10-22T00:30:39;100968.50;;;14.55;80.36
58967;BME280;44744;51.894;5.080;2022-10-22T00:31:39;100971.38;;;14.55;80.29
58967;BME280;44744;51.894;5.080;2022-10-22T00:32:39;100969.99;;;14.54;80.35
58967;BME280;44744;51.894;5.080;2022-10-22T00:33:40;100971.70;;;14.53;80.31
58967;BME280;44744;51.894;5.080;2022-10-22T00:34:41;100971.17;;;14.53;80.35
58967;BME280;44744;51.894;5.080;2022-10-22T00:35:42;100972.11;;;14.52;80.25
58967;BME280;44744;51.894;5.080;2022-10-22T00:36:43;100973.92;;;14.51;80.21
58967;BME280;44744;51.894;5.080;2022-10-22T00:37:43;100969.51;;;14.51;80.29
58967;BME280;44744;51.894;5.080;2022-10-22T00:38:43;100971.91;;;14.49;80.31
58967;BME280;44744;51.894;5.080;2022-10-22T00:39:44;100972.96;;;14.50;80.31
58967;BME280;44744;51.894;5.080;2022-10-22T00:40:44;100972.88;;;14.49;80.31
58967;BME280;44744;51.894;5.080;2022-10-22T00:41:47;100972.20;;;14.48;80.22
58967;BME280;44744;51.894;5.080;2022-10-22T00:42:48;100971.35;;;14.48;80.41
58967;BME280;44744;51.894;5.080;2022-10-22T00:43:55;100968.74;;;14.46;80.35
58967;BME280;44744;51.894;5.080;2022-10-22T00:46:10;100969.86;;;14.43;80.35
58967;BME280;44744;51.894;5.080;2022-10-22T00:47:11;100974.25;;;14.42;80.42
58967;BME280;44744;51.894;5.080;2022-10-22T00:48:17;100976.23;;;14.41;80.45
58967;BME280;44744;51.894;5.080;2022-10-22T00:49:19;100977.70;;;14.40;80.50
58967;BME280;44744;51.894;5.080;2022-10-22T00:50:41;100978.13;;;14.40;80.57
58967;BME280;44744;51.894;5.080;2022-10-22T00:51:42;100977.72;;;14.38;80.59
58967;BME280;44744;51.894;5.080;2022-10-22T00:52:43;100980.48;;;14.36;80.49
58967;BME280;44744;51.894;5.080;2022-10-22T00:53:46;100980.14;;;14.36;80.55
58967;BME280;44744;51.894;5.080;2022-10-22T00:54:49;100977.88;;;14.35;80.64
58967;BME280;44744;51.894;5.080;2022-10-22T00:55:51;100976.48;;;14.35;80.59
58967;BME280;44744;51.894;5.080;2022-10-22T00:56:53;100974.37;;;14.34;80.66
58967;BME280;44744;51.894;5.080;2022-10-22T00:57:55;100972.27;;;14.34;80.72
58967;BME280;44744;51.894;5.080;2022-10-22T00:58:57;100970.48;;;14.34;80.72
58967;BME280;44744;51.894;5.080;2022-10-22T00:59:58;100970.52;;;14.34;80.77
58967;BME280;44744;51.894;5.080;2022-10-22T01:01:00;100966.10;;;14.33;80.71
58967;BME280;44744;51.894;5.080;2022-10-22T01:02:03;100965.59;;;14.33;80.72
58967;BME280;44744;51.894;5.080;2022-10-22T01:03:03;100965.92;;;14.33;80.79
58967;BME280;44744;51.894;5.080;2022-10-22T01:04:04;100965.86;;;14.34;80.76
58967;BME280;44744;51.894;5.080;2022-10-22T01:05:04;100961.93;;;14.34;80.86
58967;BME280;44744;51.894;5.080;2022-10-22T01:06:05;100964.26;;;14.34;80.88
58967;BME280;44744;51.894;5.080;2022-10-22T01:07:05;100967.65;;;14.34;80.83
58967;BME280;44744;51.894;5.080;2022-10-22T01:08:08;100969.06;;;14.34;80.98
58967;BME280;44744;51.894;5.080;2022-10-22T01:10:55;100969.40;;;14.32;80.84
58967;BME280;44744;51.894;5.080;2022-10-22T01:12:01;100970.75;;;14.30;80.97
58967;BME280;44744;51.894;5.080;2022-10-22T01:13:12;100973.98;;;14.29;80.99
58967;BME280;44744;51.894;5.080;2022-10-22T01:14:27;100970.45;;;14.29;80.91
58967;BME280;44744;51.894;5.080;2022-10-22T01:15:56;100969.95;;;14.29;81.09
58967;BME280;44744;51.894;5.080;2022-10-22T01:17:05;100970.45;;;14.27;81.03
58967;BME280;44744;51.894;5.080;2022-10-22T01:19:13;100972.84;;;14.26;81.02
58967;BME280;44744;51.894;5.080;2022-10-22T01:20:45;100974.81;;;14.25;81.01
58967;BME280;44744;51.894;5.080;2022-10-22T01:21:54;100976.89;;;14.24;81.05
58967;BME280;44744;51.894;5.080;2022-10-22T01:24:30;100977.87;;;14.22;81.12
58967;BME280;44744;51.894;5.080;2022-10-22T01:26:01;100973.53;;;14.21;81.00
58967;BME280;44744;51.894;5.080;2022-10-22T01:27:08;100976.09;;;14.20;81.09
58967;BME280;44744;51.894;5.080;2022-10-22T01:29:48;100980.00;;;14.20;81.06
58967;BME280;44744;51.894;5.080;2022-10-22T01:30:51;100980.25;;;14.19;81.05
58967;BME280;44744;51.894;5.080;2022-10-22T01:31:57;100971.77;;;14.18;81.06
58967;BME280;44744;51.894;5.080;2022-10-22T01:33:02;100971.77;;;14.18;81.01
58967;BME280;44744;51.894;5.080;2022-10-22T01:34:06;100979.43;;;14.17;81.05
58967;BME280;44744;51.894;5.080;2022-10-22T01:35:10;100976.30;;;14.16;80.95
58967;BME280;44744;51.894;5.080;2022-10-22T01:36:11;100976.13;;;14.17;81.08
58967;BME280;44744;51.894;5.080;2022-10-22T01:37:13;100973.65;;;14.16;81.16
58967;BME280;44744;51.894;5.080;2022-10-22T01:38:18;100970.47;;;14.16;80.97
58967;BME280;44744;51.894;5.080;2022-10-22T01:39:19;100976.19;;;14.16;80.98
58967;BME280;44744;51.894;5.080;2022-10-22T01:40:22;100973.20;;;14.15;81.05
58967;BME280;44744;51.894;5.080;2022-10-22T01:41:22;100969.47;;;14.15;81.04
58967;BME280;44744;51.894;5.080;2022-10-22T01:42:23;100974.14;;;14.14;81.05
58967;BME280;44744;51.894;5.080;2022-10-22T01:43:23;100970.56;;;14.15;81.01
58967;BME280;44744;51.894;5.080;2022-10-22T01:44:32;100967.56;;;14.14;81.12
58967;BME280;44744;51.894;5.080;2022-10-22T01:45:39;100970.04;;;14.14;81.04
58967;BME280;44744;51.894;5.080;2022-10-22T01:46:41;100969.72;;;14.14;80.97
58967;BME280;44744;51.894;5.080;2022-10-22T01:49:16;100971.54;;;14.13;80.98
58967;BME280;44744;51.894;5.080;2022-10-22T01:50:49;100969.89;;;14.11;80.98
58967;BME280;44744;51.894;5.080;2022-10-22T01:52:48;100968.24;;;14.09;81.01
58967;BME280;44744;51.894;5.080;2022-10-22T01:54:16;100966.54;;;14.06;80.99
58967;BME280;44744;51.894;5.080;2022-10-22T01:55:40;100970.55;;;14.05;81.04
58967;BME280;44744;51.894;5.080;2022-10-22T01:56:54;100969.58;;;14.03;80.98
58967;BME280;44744;51.894;5.080;2022-10-22T01:58:52;100967.31;;;14.02;81.01
58967;BME280;44744;51.894;5.080;2022-10-22T02:00:57;100968.71;;;14.00;81.00
58967;BME280;44744;51.894;5.080;2022-10-22T02:03:24;100970.30;;;13.97;81.02
58967;BME280;44744;51.894;5.080;2022-10-22T02:04:33;100972.30;;;13.97;81.08
58967;BME280;44744;51.894;5.080;2022-10-22T02:06:38;100970.58;;;13.96;81.05
58967;BME280;44744;51.894;5.080;2022-10-22T02:07:49;100971.30;;;13.96;81.02
58967;BME280;44744;51.894;5.080;2022-10-22T02:08:51;100972.18;;;13.96;81.01
58967;BME280;44744;51.894;5.080;2022-10-22T02:09:55;100971.65;;;13.96;81.20
58967;BME280;44744;51.894;5.080;2022-10-22T02:10:57;100969.89;;;13.95;80.95
58967;BME280;44744;51.894;5.080;2022-10-22T02:12:01;100969.95;;;13.95;81.07
58967;BME280;44744;51.894;5.080;2022-10-22T02:13:03;100965.70;;;13.94;81.07
58967;BME280;44744;51.894;5.080;2022-10-22T02:14:07;100967.46;;;13.95;81.05
58967;BME280;44744;51.894;5.080;2022-10-22T02:15:11;100965.55;;;13.94;81.07
58967;BME280;44744;51.894;5.080;2022-10-22T02:16:17;100967.35;;;13.94;81.09
58967;BME280;44744;51.894;5.080;2022-10-22T02:17:20;100962.70;;;13.94;81.04
58967;BME280;44744;51.894;5.080;2022-10-22T02:18:24;100961.38;;;13.92;81.06
58967;BME280;44744;51.894;5.080;2022-10-22T02:19:34;100961.75;;;13.92;81.04
58967;BME280;44744;51.894;5.080;2022-10-22T02:20:41;100962.09;;;13.92;81.09
58967;BME280;44744;51.894;5.080;2022-10-22T02:21:41;100958.23;;;13.92;81.03
58967;BME280;44744;51.894;5.080;2022-10-22T02:22:42;100957.33;;;13.92;81.07
58967;BME280;44744;51.894;5.080;2022-10-22T02:23:42;100958.39;;;13.92;81.02
58967;BME280;44744;51.894;5.080;2022-10-22T02:24:43;100961.29;;;13.91;81.06
58967;BME280;44744;51.894;5.080;2022-10-22T02:25:47;100958.48;;;13.91;81.10
58967;BME280;44744;51.894;5.080;2022-10-22T02:27:03;100957.21;;;13.91;81.06
58967;BME280;44744;51.894;5.080;2022-10-22T02:28:37;100957.83;;;13.90;81.07
58967;BME280;44744;51.894;5.080;2022-10-22T02:31:06;100958.16;;;13.87;81.18
58967;BME280;44744;51.894;5.080;2022-10-22T02:32:10;100959.67;;;13.86;81.18
58967;BME280;44744;51.894;5.080;2022-10-22T02:33:18;100960.04;;;13.83;81.30
58967;BME280;44744;51.894;5.080;2022-10-22T02:34:24;100957.23;;;13.83;81.26
58967;BME280;44744;51.894;5.080;2022-10-22T02:35:27;100958.61;;;13.83;81.23
58967;BME280;44744;51.894;5.080;2022-10-22T02:36:28;100958.43;;;13.83;81.20
58967;BME280;44744;51.894;5.080;2022-10-22T02:37:29;100961.79;;;13.84;81.13
58967;BME280;44744;51.894;5.080;2022-10-22T02:38:30;100962.11;;;13.84;81.12
58967;BME280;44744;51.894;5.080;2022-10-22T02:39:32;100959.93;;;13.85;81.27
58967;BME280;44744;51.894;5.080;2022-10-22T02:40:34;100962.77;;;13.85;81.17
58967;BME280;44744;51.894;5.080;2022-10-22T02:41:36;100963.28;;;13.85;81.30
58967;BME280;44744;51.894;5.080;2022-10-22T02:42:38;100963.79;;;13.86;81.14
58967;BME280;44744;51.894;5.080;2022-10-22T02:43:41;100962.58;;;13.85;81.18
58967;BME280;44744;51.894;5.080;2022-10-22T02:44:42;100963.79;;;13.86;81.08
58967;BME280;44744;51.894;5.080;2022-10-22T02:45:42;100962.05;;;13.85;81.25
58967;BME280;44744;51.894;5.080;2022-10-22T02:46:42;100964.33;;;13.86;81.18
58967;BME280;44744;51.894;5.080;2022-10-22T02:47:43;100963.29;;;13.85;81.20
58967;BME280;44744;51.894;5.080;2022-10-22T02:48:43;100968.73;;;13.86;81.14
58967;BME280;44744;51.894;5.080;2022-10-22T02:49:44;100966.94;;;13.86;81.15
58967;BME280;44744;51.894;5.080;2022-10-22T02:50:44;100964.48;;;13.86;81.19
58967;BME280;44744;51.894;5.080;2022-10-22T02:51:44;100966.92;;;13.87;81.24
58967;BME280;44744;51.894;5.080;2022-10-22T02:52:45;100967.98;;;13.87;81.21
58967;BME280;44744;51.894;5.080;2022-10-22T02:53:45;100968.52;;;13.87;81.11
58967;BME280;44744;51.894;5.080;2022-10-22T02:54:45;100968.64;;;13.88;81.21
58967;BME280;44744;51.894;5.080;2022-10-22T02:55:45;100969.20;;;13.87;81.12
58967;BME280;44744;51.894;5.080;2022-10-22T02:56:46;100969.71;;;13.88;81.13
58967;BME280;44744;51.894;5.080;2022-10-22T02:57:46;100973.79;;;13.88;81.12
58967;BME280;44744;51.894;5.080;2022-10-22T02:58:46;100969.18;;;13.88;81.15
58967;BME280;44744;51.894;5.080;2022-10-22T02:59:47;100971.09;;;13.88;81.24
58967;BME280;44744;51.894;5.080;2022-10-22T03:00:47;100971.77;;;13.89;81.22
58967;BME280;44744;51.894;5.080;2022-10-22T03:01:48;100969.63;;;13.89;81.21
58967;BME280;44744;51.894;5.080;2022-10-22T03:02:48;100973.15;;;13.89;81.23
58967;BME280;44744;51.894;5.080;2022-10-22T03:03:48;100971.48;;;13.90;81.21
58967;BME280;44744;51.894;5.080;2022-10-22T03:04:49;100974.33;;;13.90;81.18
58967;BME280;44744;51.894;5.080;2022-10-22T03:05:50;100971.81;;;13.91;81.24
58967;BME280;44744;51.894;5.080;2022-10-22T03:06:52;100977.32;;;13.91;81.18
58967;BME280;44744;51.894;5.080;2022-10-22T03:07:52;100977.83;;;13.91;81.25
58967;BME280;44744;51.894;5.080;2022-10-22T03:08:52;100978.74;;;13.91;81.22
58967;BME280;44744;51.894;5.080;2022-10-22T03:09:52;100976.07;;;13.91;81.29
58967;BME280;44744;51.894;5.080;2022-10-22T03:10:53;100980.83;;;13.91;81.22
58967;BME280;44744;51.894;5.080;2022-10-22T03:11:53;100983.64;;;13.92;81.26
58967;BME280;44744;51.894;5.080;2022-10-22T03:12:53;100979.70;;;13.92;81.22
58967;BME280;44744;51.894;5.080;2022-10-22T03:13:53;100977.02;;;13.93;81.21
58967;BME280;44744;51.894;5.080;2022-10-22T03:14:54;100977.91;;;13.93;81.46
58967;BME280;44744;51.894;5.080;2022-10-22T03:15:54;100976.65;;;13.93;81.33
58967;BME280;44744;51.894;5.080;2022-10-22T03:16:54;100979.50;;;13.93;81.37
58967;BME280;44744;51.894;5.080;2022-10-22T03:17:54;100978.42;;;13.93;81.29
58967;BME280;44744;51.894;5.080;2022-10-22T03:18:55;100980.35;;;13.93;81.35
58967;BME280;44744;51.894;5.080;2022-10-22T03:19:55;100980.70;;;13.94;81.42
58967;BME280;44744;51.894;5.080;2022-10-22T03:21:07;100982.26;;;13.94;81.39
58967;BME280;44744;51.894;5.080;2022-10-22T03:22:12;100982.45;;;13.94;81.33
58967;BME280;44744;51.894;5.080;2022-10-22T03:23:14;100982.93;;;13.92;81.39
58967;BME280;44744;51.894;5.080;2022-10-22T03:24:25;100983.59;;;13.93;81.44
58967;BME280;44744;51.894;5.080;2022-10-22T03:25:27;100984.52;;;13.92;81.49
58967;BME280;44744;51.894;5.080;2022-10-22T03:26:27;100985.36;;;13.93;81.55
58967;BME280;44744;51.894;5.080;2022-10-22T03:27:28;100983.95;;;13.93;81.51
58967;BME280;44744;51.894;5.080;2022-10-22T03:28:29;100987.29;;;13.93;81.41
58967;BME280;44744;51.894;5.080;2022-10-22T03:29:31;100983.90;;;13.93;81.50
58967;BME280;44744;51.894;5.080;2022-10-22T03:30:32;100985.87;;;13.93;81.44
58967;BME280;44744;51.894;5.080;2022-10-22T03:31:33;100986.45;;;13.92;81.45
58967;BME280;44744;51.894;5.080;2022-10-22T03:32:33;100988.57;;;13.93;81.41
58967;BME280;44744;51.894;5.080;2022-10-22T03:33:34;100988.39;;;13.93;81.50
58967;BME280;44744;51.894;5.080;2022-10-22T03:34:34;100989.11;;;13.93;81.50
58967;BME280;44744;51.894;5.080;2022-10-22T03:35:39;100991.05;;;13.93;81.47
58967;BME280;44744;51.894;5.080;2022-10-22T03:36:42;100989.65;;;13.92;81.49
58967;BME280;44744;51.894;5.080;2022-10-22T03:37:43;100990.35;;;13.93;81.50
58967;BME280;44744;51.894;5.080;2022-10-22T03:38:43;100993.54;;;13.93;81.51
58967;BME280;44744;51.894;5.080;2022-10-22T03:39:44;100995.13;;;13.93;81.42
58967;BME280;44744;51.894;5.080;2022-10-22T03:40:44;101001.02;;;13.93;81.50
58967;BME280;44744;51.894;5.080;2022-10-22T03:41:46;100996.77;;;13.92;81.43
58967;BME280;44744;51.894;5.080;2022-10-22T03:42:47;100996.58;;;13.93;81.51
58967;BME280;44744;51.894;5.080;2022-10-22T03:43:47;100999.98;;;13.89;81.61
58967;BME280;44744;51.894;5.080;2022-10-22T03:44:47;101003.25;;;13.89;81.67
58967;BME280;44744;51.894;5.080;2022-10-22T03:45:48;101003.75;;;13.89;81.59
58967;BME280;44744;51.894;5.080;2022-10-22T03:46:48;101004.29;;;13.89;81.68
58967;BME280;44744;51.894;5.080;2022-10-22T03:47:49;101003.19;;;13.89;81.68
58967;BME280;44744;51.894;5.080;2022-10-22T03:48:49;101003.73;;;13.89;81.68
58967;BME280;44744;51.894;5.080;2022-10-22T03:49:50;101006.75;;;13.89;81.64
58967;BME280;44744;51.894;5.080;2022-10-22T03:50:50;101004.09;;;13.89;81.81
58967;BME280;44744;51.894;5.080;2022-10-22T03:51:51;101004.45;;;13.89;81.85
58967;BME280;44744;51.894;5.080;2022-10-22T03:52:51;101002.52;;;13.89;81.96
58967;BME280;44744;51.894;5.080;2022-10-22T03:53:51;101003.39;;;13.89;81.86
58967;BME280;44744;51.894;5.080;2022-10-22T03:54:51;101005.00;;;13.89;81.82
58967;BME280;44744;51.894;5.080;2022-10-22T03:55:52;101006.96;;;13.89;81.80
58967;BME280;44744;51.894;5.080;2022-10-22T03:56:52;101007.30;;;13.89;81.79
58967;BME280;44744;51.894;5.080;2022-10-22T03:57:52;101007.16;;;13.89;81.80
58967;BME280;44744;51.894;5.080;2022-10-22T03:58:58;101008.17;;;13.89;81.76
58967;BME280;44744;51.894;5.080;2022-10-22T03:59:59;101010.65;;;13.89;81.84
58967;BME280;44744;51.894;5.080;2022-10-22T04:01:06;101008.20;;;13.89;81.87
58967;BME280;44744;51.894;5.080;2022-10-22T04:02:08;101012.63;;;13.89;81.84
58967;BME280;44744;51.894;5.080;2022-10-22T04:03:08;101009.67;;;13.88;81.84
58967;BME280;44744;51.894;5.080;2022-10-22T04:04:08;101010.73;;;13.88;81.86
58967;BME280;44744;51.894;5.080;2022-10-22T04:05:09;101013.61;;;13.88;81.84
58967;BME280;44744;51.894;5.080;2022-10-22T04:06:11;101015.19;;;13.88;81.92
58967;BME280;44744;51.894;5.080;2022-10-22T04:07:12;101016.27;;;13.88;81.84
58967;BME280;44744;51.894;5.080;2022-10-22T04:08:12;101016.28;;;13.88;81.88
58967;BME280;44744;51.894;5.080;2022-10-22T04:09:12;101020.92;;;13.87;81.85
58967;BME280;44744;51.894;5.080;2022-10-22T04:10:12;101021.65;;;13.87;81.97
58967;BME280;44744;51.894;5.080;2022-10-22T04:11:14;101021.30;;;13.87;81.93
58967;BME280;44744;51.894;5.080;2022-10-22T04:12:14;101020.63;;;13.87;82.00
58967;BME280;44744;51.894;5.080;2022-10-22T04:13:14;101016.57;;;13.86;81.85
58967;BME280;44744;51.894;5.080;2022-10-22T04:14:15;101019.36;;;13.87;81.96
58967;BME280;44744;51.894;5.080;2022-10-22T04:15:15;101017.79;;;13.87;82.02
58967;BME280;44744;51.894;5.080;2022-10-22T04:16:18;101014.07;;;13.86;81.93
58967;BME280;44744;51.894;5.080;2022-10-22T04:17:19;101013.55;;;13.86;82.01
58967;BME280;44744;51.894;5.080;2022-10-22T04:18:21;101014.48;;;13.86;82.08
58967;BME280;44744;51.894;5.080;2022-10-22T04:19:22;101014.34;;;13.85;81.98
58967;BME280;44744;51.894;5.080;2022-10-22T04:20:22;101015.20;;;13.85;82.06
58967;BME280;44744;51.894;5.080;2022-10-22T04:21:23;101016.99;;;13.85;82.25
58967;BME280;44744;51.894;5.080;2022-10-22T04:22:23;101016.50;;;13.84;82.08
58967;BME280;44744;51.894;5.080;2022-10-22T04:23:23;101013.89;;;13.83;82.02
58967;BME280;44744;51.894;5.080;2022-10-22T04:24:24;101014.96;;;13.83;82.17
58967;BME280;44744;51.894;5.080;2022-10-22T04:25:24;101016.07;;;13.83;82.20
58967;BME280;44744;51.894;5.080;2022-10-22T04:26:25;101014.49;;;13.82;82.21
58967;BME280;44744;51.894;5.080;2022-10-22T04:27:29;101016.80;;;13.82;82.16
58967;BME280;44744;51.894;5.080;2022-10-22T04:28:29;101018.25;;;13.82;82.18
58967;BME280;44744;51.894;5.080;2022-10-22T04:29:30;101020.05;;;13.82;82.22
58967;BME280;44744;51.894;5.080;2022-10-22T04:30:30;101020.95;;;13.81;82.29
58967;BME280;44744;51.894;5.080;2022-10-22T04:31:30;101023.08;;;13.81;82.21
58967;BME280;44744;51.894;5.080;2022-10-22T04:32:31;101021.15;;;13.81;82.28
58967;BME280;44744;51.894;5.080;2022-10-22T04:33:31;101021.83;;;13.82;82.22
58967;BME280;44744;51.894;5.080;2022-10-22T04:34:31;101025.92;;;13.82;82.23
58967;BME280;44744;51.894;5.080;2022-10-22T04:35:31;101025.27;;;13.80;82.32
58967;BME280;44744;51.894;5.080;2022-10-22T04:36:32;101025.48;;;13.80;82.31
58967;BME280;44744;51.894;5.080;2022-10-22T04:37:32;101027.30;;;13.79;82.34
58967;BME280;44744;51.894;5.080;2022-10-22T04:38:33;101024.86;;;13.79;82.31
58967;BME280;44744;51.894;5.080;2022-10-22T04:39:33;101025.73;;;13.79;82.38
58967;BME280;44744;51.894;5.080;2022-10-22T04:40:33;101027.94;;;13.78;82.31
58967;BME280;44744;51.894;5.080;2022-10-22T04:41:37;101024.02;;;13.78;82.38
58967;BME280;44744;51.894;5.080;2022-10-22T04:42:37;101025.61;;;13.78;82.34
58967;BME280;44744;51.894;5.080;2022-10-22T04:43:38;101023.87;;;13.78;82.29
58967;BME280;44744;51.894;5.080;2022-10-22T04:44:38;101027.04;;;13.78;82.34
58967;BME280;44744;51.894;5.080;2022-10-22T04:45:38;101026.70;;;13.78;82.36
58967;BME280;44744;51.894;5.080;2022-10-22T04:46:39;101031.50;;;13.78;82.23
58967;BME280;44744;51.894;5.080;2022-10-22T04:47:39;101030.45;;;13.77;82.29
58967;BME280;44744;51.894;5.080;2022-10-22T04:48:40;101037.20;;;13.78;82.48
58967;BME280;44744;51.894;5.080;2022-10-22T04:49:41;101035.61;;;13.77;82.34
58967;BME280;44744;51.894;5.080;2022-10-22T04:50:41;101035.11;;;13.74;82.39
58967;BME280;44744;51.894;5.080;2022-10-22T04:51:41;101033.06;;;13.73;82.43
58967;BME280;44744;51.894;5.080;2022-10-22T04:52:43;101033.41;;;13.73;82.37
58967;BME280;44744;51.894;5.080;2022-10-22T04:53:44;101031.48;;;13.73;82.38
58967;BME280;44744;51.894;5.080;2022-10-22T04:54:45;101035.77;;;13.72;82.31
58967;BME280;44744;51.894;5.080;2022-10-22T04:55:46;101035.43;;;13.72;82.43
58967;BME280;44744;51.894;5.080;2022-10-22T04:56:46;101039.40;;;13.71;82.45
58967;BME280;44744;51.894;5.080;2022-10-22T04:57:46;101039.91;;;13.72;82.37
58967;BME280;44744;51.894;5.080;2022-10-22T05:00:09;101037.45;;;13.71;82.33
58967;BME280;44744;51.894;5.080;2022-10-22T05:01:15;101040.41;;;13.69;82.40
58967;BME280;44744;51.894;5.080;2022-10-22T05:02:15;101037.42;;;13.69;82.41
58967;BME280;44744;51.894;5.080;2022-10-22T05:03:16;101040.95;;;13.69;82.49
58967;BME280;44744;51.894;5.080;2022-10-22T05:04:17;101040.84;;;13.68;82.42
58967;BME280;44744;51.894;5.080;2022-10-22T05:05:17;101040.66;;;13.68;82.44
58967;BME280;44744;51.894;5.080;2022-10-22T05:06:18;101041.05;;;13.68;82.39
58967;BME280;44744;51.894;5.080;2022-10-22T05:07:18;101043.73;;;13.67;82.44
58967;BME280;44744;51.894;5.080;2022-10-22T05:08:18;101044.30;;;13.67;82.44
58967;BME280;44744;51.894;5.080;2022-10-22T05:09:19;101043.77;;;13.67;82.47
58967;BME280;44744;51.894;5.080;2022-10-22T05:10:20;101042.88;;;13.67;82.44
58967;BME280;44744;51.894;5.080;2022-10-22T05:11:23;101044.32;;;13.66;82.38
58967;BME280;44744;51.894;5.080;2022-10-22T05:12:23;101042.71;;;13.66;82.54
58967;BME280;44744;51.894;5.080;2022-10-22T05:13:24;101043.83;;;13.65;82.57
58967;BME280;44744;51.894;5.080;2022-10-22T05:14:24;101043.73;;;13.67;82.41
58967;BME280;44744;51.894;5.080;2022-10-22T05:15:24;101043.02;;;13.67;82.48
58967;BME280;44744;51.894;5.080;2022-10-22T05:16:27;101045.39;;;13.66;82.46
58967;BME280;44744;51.894;5.080;2022-10-22T05:17:27;101046.30;;;13.66;82.55
58967;BME280;44744;51.894;5.080;2022-10-22T05:18:27;101046.17;;;13.65;82.53
58967;BME280;44744;51.894;5.080;2022-10-22T05:19:29;101045.37;;;13.64;82.42
58967;BME280;44744;51.894;5.080;2022-10-22T05:20:29;101047.15;;;13.64;82.47
58967;BME280;44744;51.894;5.080;2022-10-22T05:21:30;101047.90;;;13.63;82.52
58967;BME280;44744;51.894;5.080;2022-10-22T05:22:30;101049.73;;;13.62;82.54
58967;BME280;44744;51.894;5.080;2022-10-22T05:23:32;101048.30;;;13.62;82.50
58967;BME280;44744;51.894;5.080;2022-10-22T05:24:33;101046.70;;;13.62;82.58
58967;BME280;44744;51.894;5.080;2022-10-22T05:25:37;101046.36;;;13.62;82.52
58967;BME280;44744;51.894;5.080;2022-10-22T05:26:38;101042.90;;;13.61;82.52
58967;BME280;44744;51.894;5.080;2022-10-22T05:27:38;101043.08;;;13.61;82.53
58967;BME280;44744;51.894;5.080;2022-10-22T05:28:39;101044.02;;;13.60;82.47
58967;BME280;44744;51.894;5.080;2022-10-22T05:29:39;101044.89;;;13.60;82.57
58967;BME280;44744;51.894;5.080;2022-10-22T05:30:39;101045.02;;;13.61;82.56
58967;BME280;44744;51.894;5.080;2022-10-22T05:31:40;101045.94;;;13.60;82.43
58967;BME280;44744;51.894;5.080;2022-10-22T05:32:40;101046.48;;;13.61;82.46
58967;BME280;44744;51.894;5.080;2022-10-22T05:33:41;101044.02;;;13.60;82.54
58967;BME280;44744;51.894;5.080;2022-10-22T05:34:41;101044.75;;;13.59;82.54
58967;BME280;44744;51.894;5.080;2022-10-22T05:35:42;101047.58;;;13.60;82.51
58967;BME280;44744;51.894;5.080;2022-10-22T05:37:10;101046.70;;;13.60;82.47
58967;BME280;44744;51.894;5.080;2022-10-22T05:39:34;101047.04;;;13.57;82.58
58967;BME280;44744;51.894;5.080;2022-10-22T05:40:34;101052.78;;;13.56;82.61
58967;BME280;44744;51.894;5.080;2022-10-22T05:41:35;101053.34;;;13.56;82.61
58967;BME280;44744;51.894;5.080;2022-10-22T05:42:35;101058.65;;;13.56;82.54
58967;BME280;44744;51.894;5.080;2022-10-22T05:43:36;101059.39;;;13.56;82.51
58967;BME280;44744;51.894;5.080;2022-10-22T05:44:36;101058.89;;;13.55;82.53